createdAt,value
2022-08-29T00:01:23.548Z,100.00
2022-08-29T00:03:51.183Z,100.00
2022-08-29T00:06:18.740Z,100.00
2022-08-29T00:08:46.368Z,100.00
2022-08-29T00:11:15.067Z,100.00
2022-08-29T00:13:44.124Z,100.00
2022-08-29T00:16:11.964Z,100.00
2022-08-29T00:18:39.535Z,100.00
2022-08-29T00:21:07.450Z,100.00
2022-08-29T00:23:35.272Z,100.00
2022-08-29T00:26:03.079Z,100.00
2022-08-29T00:28:30.647Z,100.00
2022-08-29T00:30:59.520Z,100.00
2022-08-29T00:33:27.046Z,100.00
2022-08-29T00:35:55.315Z,100.00
2022-08-29T00:38:27.846Z,100.00
2022-08-29T00:40:58.428Z,100.00
2022-08-29T00:43:28.436Z,100.00
2022-08-29T00:46:06.765Z,100.00
2022-08-29T00:48:37.182Z,100.00
2022-08-29T00:51:08.931Z,100.00
2022-08-29T00:53:40.846Z,100.00
2022-08-29T00:56:10.772Z,100.00
2022-08-29T00:58:43.587Z,100.00
2022-08-29T01:01:13.107Z,100.00
2022-08-29T01:03:42.902Z,100.00
2022-08-29T01:06:13.438Z,100.00
2022-08-29T01:08:41.590Z,100.00
2022-08-29T01:11:38.408Z,100.00
2022-08-29T01:14:06.174Z,100.00
2022-08-29T01:16:37.149Z,100.00
2022-08-29T01:19:16.096Z,100.00
2022-08-29T01:21:51.017Z,100.00
2022-08-29T01:24:39.603Z,100.00
2022-08-29T01:27:07.979Z,100.00
2022-08-29T01:29:36.059Z,100.00
2022-08-29T01:32:04.334Z,100.00
2022-08-29T01:34:31.963Z,100.00
2022-08-29T01:37:01.917Z,100.00
2022-08-29T01:39:33.368Z,100.00
2022-08-29T01:42:06.161Z,100.00
2022-08-29T01:44:34.127Z,100.00
2022-08-29T01:47:03.255Z,100.00
2022-08-29T01:49:32.346Z,100.00
2022-08-29T01:51:59.877Z,100.00
2022-08-29T01:54:27.411Z,100.00
2022-08-29T01:56:56.258Z,100.00
2022-08-29T01:59:27.238Z,100.00
2022-08-29T02:01:59.355Z,100.00
2022-08-29T02:04:27.311Z,100.00
2022-08-29T02:06:55.588Z,100.00
2022-08-29T02:09:23.648Z,100.00
2022-08-29T02:11:52.524Z,100.00
2022-08-29T02:14:22.049Z,100.00
2022-08-29T02:16:49.563Z,100.00
2022-08-29T02:19:18.335Z,100.00
2022-08-29T02:21:45.975Z,100.00
2022-08-29T02:24:25.346Z,100.00
2022-08-29T02:26:53.392Z,100.00
2022-08-29T02:29:23.052Z,100.00
2022-08-29T02:31:50.817Z,100.00
2022-08-29T02:34:19.034Z,100.00
2022-08-29T02:36:48.996Z,100.00
2022-08-29T02:39:18.093Z,100.00
2022-08-29T02:41:45.736Z,100.00
2022-08-29T02:44:13.336Z,100.00
2022-08-29T02:46:42.309Z,100.00
2022-08-29T02:49:10.123Z,100.00
2022-08-29T02:51:37.600Z,100.00
2022-08-29T02:54:05.771Z,100.00
2022-08-29T02:56:33.312Z,100.00
2022-08-29T02:59:01.187Z,100.00
2022-08-29T03:01:28.803Z,100.00
2022-08-29T03:03:58.199Z,100.00
2022-08-29T03:06:25.729Z,100.00
2022-08-29T03:08:54.144Z,100.00
2022-08-29T03:11:23.265Z,100.00
2022-08-29T03:13:50.764Z,100.00
2022-08-29T03:16:18.924Z,100.00
2022-08-29T03:18:46.485Z,100.00
2022-08-29T03:21:20.663Z,100.00
2022-08-29T03:23:49.451Z,100.00
2022-08-29T03:26:17.366Z,100.00
2022-08-29T03:28:45.280Z,100.00
2022-08-29T03:31:12.910Z,100.00
2022-08-29T03:33:40.509Z,100.00
2022-08-29T03:36:14.363Z,100.00
2022-08-29T03:38:44.192Z,100.00
2022-08-29T03:41:12.283Z,100.00
2022-08-29T03:43:39.848Z,100.00
2022-08-29T03:46:07.511Z,100.00
2022-08-29T03:48:35.070Z,100.00
2022-08-29T03:51:02.851Z,100.00
2022-08-29T03:53:30.827Z,100.00
2022-08-29T03:55:59.720Z,100.00
2022-08-29T03:58:27.227Z,100.00
2022-08-29T04:00:54.785Z,100.00
2022-08-29T04:03:26.581Z,100.00
2022-08-29T04:05:59.497Z,100.00
2022-08-29T04:08:27.063Z,100.00
2022-08-29T04:10:54.592Z,100.00
2022-08-29T04:13:23.431Z,100.00
2022-08-29T04:15:51.099Z,100.00
2022-08-29T04:18:21.720Z,100.00
2022-08-29T04:20:50.121Z,100.00
2022-08-29T04:23:17.796Z,100.00
2022-08-29T04:25:45.554Z,100.00
2022-08-29T04:28:14.757Z,100.00
2022-08-29T04:30:51.662Z,100.00
2022-08-29T04:33:22.855Z,100.00
2022-08-29T04:35:51.153Z,100.00
2022-08-29T04:38:18.884Z,100.00
2022-08-29T04:40:46.428Z,100.00
2022-08-29T04:43:14.478Z,100.00
2022-08-29T04:45:42.013Z,100.00
2022-08-29T04:48:11.090Z,100.00
2022-08-29T04:50:39.035Z,100.00
2022-08-29T04:53:06.548Z,100.00
2022-08-29T04:55:34.052Z,100.00
2022-08-29T04:58:01.670Z,100.00
2022-08-29T05:00:31.581Z,100.00
2022-08-29T05:02:59.597Z,100.00
2022-08-29T05:05:28.761Z,100.00
2022-08-29T05:07:56.272Z,100.00
2022-08-29T05:10:24.045Z,100.00
2022-08-29T05:12:51.539Z,100.00
2022-08-29T05:15:19.846Z,100.00
2022-08-29T05:17:47.379Z,100.00
2022-08-29T05:20:14.891Z,100.00
2022-08-29T05:22:44.031Z,100.00
2022-08-29T05:25:17.907Z,100.00
2022-08-29T05:27:46.186Z,100.00
2022-08-29T05:30:13.857Z,100.00
2022-08-29T05:32:41.366Z,100.00
2022-08-29T05:35:09.461Z,100.00
2022-08-29T05:37:38.685Z,100.00
2022-08-29T05:40:08.790Z,100.00
2022-08-29T05:42:36.354Z,100.00
2022-08-29T05:45:05.046Z,97.22
2022-08-29T05:47:33.692Z,99.38
2022-08-29T05:50:01.779Z,100.00
2022-08-29T05:52:30.256Z,100.00
2022-08-29T05:54:57.763Z,100.00
2022-08-29T05:57:27.496Z,100.00
2022-08-29T05:59:55.411Z,100.00
2022-08-29T06:02:25.031Z,100.00
2022-08-29T06:04:53.279Z,100.00
2022-08-29T06:07:21.186Z,100.00
2022-08-29T06:09:52.803Z,96.17
2022-08-29T06:12:20.608Z,92.71
2022-08-29T06:14:53.087Z,87.29
2022-08-29T06:17:20.839Z,83.36
2022-08-29T06:19:51.538Z,84.96
2022-08-29T06:22:19.735Z,77.63
2022-08-29T06:24:47.389Z,72.83
2022-08-29T06:27:16.324Z,69.01
2022-08-29T06:29:44.066Z,65.38
2022-08-29T06:32:12.977Z,71.16
2022-08-29T06:34:40.565Z,80.46
2022-08-29T06:37:08.093Z,69.26
2022-08-29T06:39:35.738Z,76.98
2022-08-29T06:42:03.260Z,81.61
2022-08-29T06:44:31.233Z,87.62
2022-08-29T06:46:59.809Z,82.89
2022-08-29T06:49:29.608Z,75.00
2022-08-29T06:51:58.597Z,70.02
2022-08-29T06:54:28.831Z,66.44
2022-08-29T06:56:57.034Z,69.27
2022-08-29T06:59:25.084Z,69.46
2022-08-29T07:01:52.735Z,65.90
2022-08-29T07:04:20.983Z,61.13
2022-08-29T07:06:50.340Z,59.63
2022-08-29T07:09:18.004Z,56.69
2022-08-29T07:11:45.513Z,54.41
2022-08-29T07:14:13.948Z,55.62
2022-08-29T07:16:42.148Z,56.46
2022-08-29T07:19:11.122Z,57.08
2022-08-29T07:21:39.797Z,56.89
2022-08-29T07:24:09.492Z,54.66
2022-08-29T07:26:41.421Z,50.21
2022-08-29T07:29:11.701Z,48.90
2022-08-29T07:31:39.959Z,45.94
2022-08-29T07:34:07.731Z,44.71
2022-08-29T07:36:35.855Z,42.84
2022-08-29T07:39:06.636Z,41.72
2022-08-29T07:41:35.485Z,39.65
2022-08-29T07:44:03.189Z,38.26
2022-08-29T07:46:31.485Z,38.08
2022-08-29T07:48:59.716Z,37.19
2022-08-29T07:51:27.935Z,36.86
2022-08-29T07:53:56.824Z,36.80
2022-08-29T07:56:26.657Z,35.86
2022-08-29T07:58:56.830Z,34.99
2022-08-29T08:01:25.613Z,35.31
2022-08-29T08:03:54.124Z,34.65
2022-08-29T08:06:23.244Z,34.28
2022-08-29T08:08:51.883Z,32.65
2022-08-29T08:11:20.702Z,32.09
2022-08-29T08:13:48.460Z,30.70
2022-08-29T08:16:20.368Z,30.45
2022-08-29T08:18:49.021Z,30.04
2022-08-29T08:21:16.575Z,29.71
2022-08-29T08:23:44.815Z,30.49
2022-08-29T08:26:13.804Z,30.80
2022-08-29T08:28:42.445Z,31.75
2022-08-29T08:31:11.819Z,32.88
2022-08-29T08:33:45.084Z,31.86
2022-08-29T08:36:17.667Z,31.24
2022-08-29T08:38:45.446Z,32.41
2022-08-29T08:41:27.061Z,30.49
2022-08-29T08:43:57.808Z,31.76
2022-08-29T08:46:31.609Z,33.15
2022-08-29T08:49:02.184Z,33.68
2022-08-29T08:51:34.856Z,32.86
2022-08-29T08:54:08.293Z,31.40
2022-08-29T08:56:43.049Z,30.25
2022-08-29T08:59:16.286Z,30.41
2022-08-29T09:01:48.933Z,31.41
2022-08-29T09:04:37.999Z,32.80
2022-08-29T09:07:19.714Z,32.07
2022-08-29T09:10:07.920Z,33.50
2022-08-29T09:12:49.890Z,32.79
2022-08-29T09:15:22.236Z,33.57
2022-08-29T09:17:52.652Z,31.34
2022-08-29T09:20:25.972Z,31.74
2022-08-29T09:23:02.719Z,33.27
2022-08-29T09:25:35.895Z,31.17
2022-08-29T09:28:07.302Z,31.63
2022-08-29T09:30:36.669Z,30.46
2022-08-29T09:33:08.674Z,30.22
2022-08-29T09:35:41.264Z,29.62
2022-08-29T09:38:10.629Z,32.25
2022-08-29T09:40:46.118Z,34.11
2022-08-29T09:43:19.665Z,33.02
2022-08-29T09:46:08.495Z,33.47
2022-08-29T09:48:38.031Z,35.59
2022-08-29T09:51:28.211Z,37.28
2022-08-29T09:54:14.028Z,38.16
2022-08-29T09:56:50.103Z,39.29
2022-08-29T09:59:25.601Z,39.52
2022-08-29T10:02:22.574Z,40.19
2022-08-29T10:04:52.665Z,41.72
2022-08-29T10:07:24.855Z,41.32
2022-08-29T10:09:58.995Z,43.97
2022-08-29T10:12:34.734Z,42.91
2022-08-29T10:15:07.212Z,45.57
2022-08-29T10:17:59.631Z,46.41
2022-08-29T10:20:41.726Z,48.00
2022-08-29T10:23:21.344Z,45.92
2022-08-29T10:25:52.015Z,43.37
2022-08-29T10:28:33.900Z,44.23
2022-08-29T10:31:10.374Z,48.85
2022-08-29T10:33:58.053Z,48.18
2022-08-29T10:36:31.544Z,46.98
2022-08-29T10:39:07.604Z,48.82
2022-08-29T10:41:41.186Z,48.48
2022-08-29T10:44:24.490Z,46.17
2022-08-29T10:47:03.226Z,48.15
2022-08-29T10:49:46.054Z,49.87
2022-08-29T10:52:22.450Z,47.19
2022-08-29T10:55:01.325Z,42.66
2022-08-29T10:57:47.309Z,41.68
2022-08-29T11:00:19.492Z,39.74
2022-08-29T11:02:54.844Z,38.11
2022-08-29T11:05:25.686Z,36.76
2022-08-29T11:08:01.247Z,34.47
2022-08-29T11:10:40.275Z,32.58
2022-08-29T11:13:13.270Z,33.93
2022-08-29T11:15:44.644Z,32.80
2022-08-29T11:18:24.836Z,31.86
2022-08-29T11:20:57.770Z,32.42
2022-08-29T11:23:34.099Z,31.99
2022-08-29T11:26:09.012Z,32.92
2022-08-29T11:28:47.065Z,31.90
2022-08-29T11:31:23.865Z,31.35
2022-08-29T11:34:02.996Z,30.82
2022-08-29T11:36:48.092Z,31.98
2022-08-29T11:39:35.055Z,32.19
2022-08-29T11:42:07.083Z,33.23
2022-08-29T11:44:39.999Z,32.66
2022-08-29T11:47:40.776Z,30.90
2022-08-29T11:50:23.817Z,30.75
2022-08-29T11:52:56.115Z,30.02
2022-08-29T11:55:35.916Z,28.39
2022-08-29T11:58:11.597Z,28.01
2022-08-29T12:00:51.357Z,26.71
2022-08-29T12:03:53.664Z,25.49
2022-08-29T12:06:37.029Z,27.11
2022-08-29T12:09:19.796Z,28.34
2022-08-29T12:12:35.779Z,33.02
2022-08-29T12:15:45.508Z,32.76
2022-08-29T12:18:36.610Z,40.29
2022-08-29T12:21:44.177Z,40.13
2022-08-29T12:24:28.856Z,41.44
2022-08-29T12:26:56.880Z,45.08
2022-08-29T12:29:27.064Z,46.45
2022-08-29T12:32:22.839Z,47.66
2022-08-29T12:35:13.621Z,47.40
2022-08-29T12:37:54.383Z,48.98
2022-08-29T12:40:47.645Z,50.41
2022-08-29T12:43:36.301Z,49.15
2022-08-29T12:46:09.614Z,49.52
2022-08-29T12:48:53.427Z,48.71
2022-08-29T12:51:33.938Z,49.67
2022-08-29T12:54:02.961Z,50.37
2022-08-29T12:56:30.649Z,49.73
2022-08-29T12:59:00.984Z,47.87
2022-08-29T13:01:31.593Z,44.67
2022-08-29T13:04:02.523Z,42.53
2022-08-29T13:06:31.076Z,39.03
2022-08-29T13:08:58.981Z,38.35
2022-08-29T13:11:30.940Z,38.14
2022-08-29T13:14:07.826Z,37.97
2022-08-29T13:16:35.390Z,35.96
2022-08-29T13:19:11.640Z,35.28
2022-08-29T13:21:39.517Z,34.19
2022-08-29T13:24:13.438Z,33.13
2022-08-29T13:27:04.203Z,32.44
2022-08-29T13:29:37.944Z,31.46
2022-08-29T13:32:27.074Z,31.52
2022-08-29T13:35:06.301Z,34.53
2022-08-29T13:37:36.015Z,35.25
2022-08-29T13:40:29.455Z,35.88
2022-08-29T13:43:00.175Z,35.68
2022-08-29T13:45:28.198Z,34.63
2022-08-29T13:48:04.084Z,33.95
2022-08-29T13:50:32.219Z,34.38
2022-08-29T13:53:00.140Z,34.90
2022-08-29T13:55:27.660Z,35.78
2022-08-29T13:57:56.416Z,34.98
2022-08-29T14:00:35.075Z,34.61
2022-08-29T14:03:06.518Z,34.98
2022-08-29T14:05:35.095Z,34.54
2022-08-29T14:08:03.093Z,33.41
2022-08-29T14:10:30.597Z,32.52
2022-08-29T14:12:58.100Z,33.51
2022-08-29T14:15:26.928Z,33.77
2022-08-29T14:17:54.602Z,34.54
2022-08-29T14:20:22.757Z,34.65
2022-08-29T14:22:50.301Z,34.13
2022-08-29T14:25:20.285Z,33.96
2022-08-29T14:27:48.785Z,35.55
2022-08-29T14:30:20.768Z,36.96
2022-08-29T14:32:49.617Z,39.22
2022-08-29T14:35:27.422Z,41.46
2022-08-29T14:38:00.352Z,43.64
2022-08-29T14:40:28.791Z,46.10
2022-08-29T14:42:56.785Z,48.27
2022-08-29T14:45:24.279Z,49.98
2022-08-29T14:47:53.231Z,52.47
2022-08-29T14:50:21.065Z,51.35
2022-08-29T14:52:48.589Z,50.00
2022-08-29T14:55:17.796Z,50.75
2022-08-29T14:57:45.286Z,47.71
2022-08-29T15:00:16.861Z,45.62
2022-08-29T15:02:44.365Z,42.37
2022-08-29T15:05:13.768Z,40.50
2022-08-29T15:07:44.238Z,38.68
2022-08-29T15:10:18.139Z,39.11
2022-08-29T15:12:45.969Z,38.74
2022-08-29T15:15:13.642Z,37.27
2022-08-29T15:17:43.483Z,37.25
2022-08-29T15:23:01.770Z,38.86
2022-08-29T15:25:29.587Z,39.38
2022-08-29T15:27:59.384Z,39.45
2022-08-29T15:30:27.409Z,39.36
2022-08-29T15:32:54.991Z,39.25
2022-08-29T15:35:23.941Z,38.95
2022-08-29T15:37:53.520Z,39.15
2022-08-29T15:40:21.089Z,37.93
2022-08-29T15:42:48.701Z,37.83
2022-08-29T15:45:16.368Z,36.95
2022-08-29T15:47:46.132Z,36.62
2022-08-29T15:50:14.558Z,37.20
2022-08-29T15:52:43.520Z,36.62
2022-08-29T15:55:12.617Z,38.79
2022-08-29T15:57:51.754Z,38.19
2022-08-29T16:00:30.564Z,37.68
2022-08-29T16:03:00.388Z,36.85
2022-08-29T16:05:28.450Z,36.61
2022-08-29T16:07:57.335Z,36.08
2022-08-29T16:10:25.003Z,37.76
2022-08-29T16:12:52.671Z,35.96
2022-08-29T16:15:20.219Z,35.71
2022-08-29T16:17:49.746Z,36.19
2022-08-29T16:20:17.350Z,35.19
2022-08-29T16:22:44.864Z,36.54
2022-08-29T16:25:14.963Z,39.22
2022-08-29T16:27:42.469Z,41.33
2022-08-29T16:30:11.444Z,42.53
2022-08-29T16:32:39.098Z,42.96
2022-08-29T16:35:07.876Z,44.29
2022-08-29T16:37:35.555Z,43.78
2022-08-29T16:40:05.198Z,42.92
2022-08-29T16:42:34.184Z,43.95
2022-08-29T16:45:01.690Z,45.75
2022-08-29T16:47:29.204Z,44.98
2022-08-29T16:49:56.727Z,44.25
2022-08-29T16:52:24.237Z,44.68
2022-08-29T16:54:53.710Z,44.76
2022-08-29T16:57:21.825Z,44.76
2022-08-29T16:59:51.003Z,47.31
2022-08-29T17:02:18.651Z,48.58
2022-08-29T17:04:46.851Z,50.13
2022-08-29T17:07:14.364Z,52.36
2022-08-29T17:09:40.921Z,51.29
2022-08-29T17:12:08.000Z,52.52
2022-08-29T17:14:36.402Z,52.71
2022-08-29T17:17:05.699Z,55.98
2022-08-29T17:19:34.074Z,57.58
2022-08-29T17:22:01.691Z,55.74
2022-08-29T17:24:29.228Z,55.14
2022-08-29T17:26:56.947Z,54.98
2022-08-29T17:29:24.447Z,55.89
2022-08-29T17:31:51.959Z,56.85
2022-08-29T17:34:20.997Z,57.97
2022-08-29T17:36:49.654Z,59.62
2022-08-29T17:39:17.321Z,60.83
2022-08-29T17:41:50.469Z,62.61
2022-08-29T17:44:19.036Z,63.23
2022-08-29T17:46:46.631Z,64.34
2022-08-29T17:49:14.140Z,65.87
2022-08-29T17:51:43.073Z,67.28
2022-08-29T17:54:14.693Z,69.07
2022-08-29T17:56:45.010Z,71.12
2022-08-29T17:59:13.076Z,72.14
2022-08-29T18:01:40.989Z,74.05
2022-08-29T18:04:08.575Z,79.49
2022-08-29T18:06:36.089Z,82.31
2022-08-29T18:09:05.494Z,84.85
2022-08-29T18:11:33.126Z,87.00
2022-08-29T18:14:01.056Z,97.45
2022-08-29T18:16:28.645Z,100.00
2022-08-29T18:18:56.230Z,95.15
2022-08-29T18:21:23.740Z,90.47
2022-08-29T18:23:51.224Z,89.00
2022-08-29T18:26:20.195Z,87.33
2022-08-29T18:28:47.711Z,90.62
2022-08-29T18:31:18.341Z,88.24
2022-08-29T18:34:00.086Z,86.46
2022-08-29T18:36:28.412Z,87.17
2022-08-29T18:38:55.928Z,87.97
2022-08-29T18:41:24.947Z,88.49
2022-08-29T18:43:52.526Z,88.77
2022-08-29T18:46:20.551Z,88.18
2022-08-29T18:48:48.083Z,87.58
2022-08-29T18:51:15.768Z,87.13
2022-08-29T18:53:43.638Z,87.26
2022-08-29T18:56:11.501Z,90.36
2022-08-29T18:58:41.168Z,89.29
2022-08-29T19:01:13.518Z,91.13
2022-08-29T19:03:41.610Z,90.75
2022-08-29T19:06:10.255Z,91.98
2022-08-29T19:08:38.363Z,95.55
2022-08-29T19:11:06.716Z,100.00
2022-08-29T19:13:35.988Z,100.00
2022-08-29T19:16:06.792Z,100.00
2022-08-29T19:18:35.334Z,100.00
2022-08-29T19:21:06.344Z,100.00
2022-08-29T19:23:37.438Z,100.00
2022-08-29T19:26:08.091Z,100.00
2022-08-29T19:28:36.362Z,100.00
2022-08-29T19:31:06.495Z,100.00
2022-08-29T19:33:34.997Z,100.00
2022-08-29T19:36:03.868Z,100.00
2022-08-29T19:38:31.537Z,100.00
2022-08-29T19:40:59.257Z,100.00
2022-08-29T19:43:29.999Z,100.00
2022-08-29T19:45:59.166Z,100.00
2022-08-29T19:48:29.484Z,100.00
2022-08-29T19:50:57.680Z,100.00
2022-08-29T19:53:26.893Z,100.00
2022-08-29T19:55:55.340Z,100.00
2022-08-29T19:58:31.009Z,100.00
2022-08-29T20:01:00.318Z,100.00
2022-08-29T20:03:29.771Z,100.00
2022-08-29T20:05:59.379Z,100.00
2022-08-29T20:08:27.301Z,100.00
2022-08-29T20:10:56.861Z,100.00
2022-08-29T20:13:24.341Z,100.00
2022-08-29T20:15:53.527Z,100.00
2022-08-29T20:18:22.437Z,100.00
2022-08-29T20:20:51.380Z,100.00
2022-08-29T20:23:18.852Z,100.00
2022-08-29T20:25:47.155Z,100.00
2022-08-29T20:28:15.862Z,100.00
2022-08-29T20:30:44.128Z,100.00
2022-08-29T20:33:12.136Z,100.00
2022-08-29T20:35:57.544Z,100.00
2022-08-29T20:38:27.088Z,100.00
2022-08-29T20:40:54.748Z,100.00
2022-08-29T20:43:22.284Z,100.00
2022-08-29T20:45:49.989Z,100.00
2022-08-29T20:48:18.206Z,100.00
2022-08-29T20:50:45.720Z,100.00
2022-08-29T20:53:26.810Z,100.00
2022-08-29T20:56:01.206Z,100.00
2022-08-29T20:58:30.137Z,100.00
2022-08-29T21:00:57.792Z,100.00
2022-08-29T21:03:42.589Z,100.00
2022-08-29T21:06:10.641Z,100.00
2022-08-29T21:08:39.766Z,100.00
2022-08-29T21:11:09.860Z,100.00
2022-08-29T21:13:43.116Z,100.00
2022-08-29T21:16:10.983Z,100.00
2022-08-29T21:18:38.571Z,100.00
2022-08-29T21:21:06.537Z,100.00
2022-08-29T21:23:34.227Z,100.00
2022-08-29T21:26:02.761Z,100.00
2022-08-29T21:28:32.761Z,100.00
2022-08-29T21:31:04.579Z,100.00
2022-08-29T21:33:33.356Z,100.00
2022-08-29T21:36:01.549Z,100.00
2022-08-29T21:38:29.428Z,100.00
2022-08-29T21:40:58.581Z,100.00
2022-08-29T21:43:26.084Z,100.00
2022-08-29T21:45:54.912Z,100.00
2022-08-29T21:48:22.430Z,100.00
2022-08-29T21:50:55.039Z,100.00
2022-08-29T21:53:22.746Z,100.00
2022-08-29T21:55:50.252Z,100.00
2022-08-29T21:58:17.925Z,100.00
2022-08-29T22:00:45.452Z,100.00
2022-08-29T22:03:14.799Z,100.00
2022-08-29T22:05:44.034Z,100.00
2022-08-29T22:08:13.847Z,100.00
2022-08-29T22:10:42.687Z,100.00
2022-08-29T22:13:10.404Z,100.00
2022-08-29T22:15:55.516Z,100.00
2022-08-29T22:18:24.402Z,100.00
2022-08-29T22:20:55.086Z,100.00
2022-08-29T22:23:24.665Z,100.00
2022-08-29T22:25:52.537Z,100.00
2022-08-29T22:28:20.041Z,100.00
2022-08-29T22:30:48.723Z,100.00
2022-08-29T22:33:16.893Z,100.00
2022-08-29T22:35:46.047Z,100.00
2022-08-29T22:38:13.519Z,100.00
2022-08-29T22:40:41.139Z,100.00
2022-08-29T22:43:08.740Z,100.00
2022-08-29T22:45:36.312Z,100.00
2022-08-29T22:48:04.277Z,100.00
2022-08-29T22:50:31.761Z,100.00
2022-08-29T22:53:01.942Z,100.00
2022-08-29T22:57:57.232Z,100.00
2022-08-29T23:00:27.200Z,100.00
2022-08-29T23:02:54.986Z,100.00
2022-08-29T23:05:24.116Z,100.00
2022-08-29T23:07:51.856Z,100.00
2022-08-29T23:10:22.000Z,100.00
2022-08-29T23:12:49.630Z,100.00
2022-08-29T23:15:18.488Z,100.00
2022-08-29T23:17:46.025Z,100.00
2022-08-29T23:20:15.039Z,100.00
2022-08-29T23:22:42.972Z,100.00
2022-08-29T23:25:12.032Z,100.00
2022-08-29T23:27:41.339Z,100.00
2022-08-29T23:30:11.671Z,100.00
2022-08-29T23:32:39.669Z,100.00
2022-08-29T23:35:08.739Z,100.00
2022-08-29T23:37:36.331Z,100.00
2022-08-29T23:40:04.979Z,100.00
2022-08-29T23:42:32.591Z,100.00
2022-08-29T23:45:01.451Z,100.00
2022-08-29T23:47:29.023Z,100.00
2022-08-29T23:49:56.541Z,100.00
2022-08-29T23:52:24.036Z,100.00
2022-08-29T23:54:51.524Z,100.00
2022-08-29T23:57:19.019Z,100.00
